sensor_id;sensor_type;location;lat;lon;timestamp;P1;durP1;ratioP1;P2;durP2;ratioP2
20619;SDS011;10469;42.720;23.252;2024-02-26T00:00:30;27.90;;;19.05;;
20619;SDS011;10469;42.720;23.252;2024-02-26T00:02:56;28.02;;;18.15;;
20619;SDS011;10469;42.720;23.252;2024-02-26T00:05:21;27.02;;;18.35;;
20619;SDS011;10469;42.720;23.252;2024-02-26T00:07:47;31.60;;;19.00;;
20619;SDS011;10469;42.720;23.252;2024-02-26T00:10:13;23.88;;;16.73;;
20619;SDS011;10469;42.720;23.252;2024-02-26T00:12:39;25.15;;;18.08;;
20619;SDS011;10469;42.720;23.252;2024-02-26T00:15:05;30.52;;;19.77;;
20619;SDS011;10469;42.720;23.252;2024-02-26T00:17:31;36.28;;;21.05;;
20619;SDS011;10469;42.720;23.252;2024-02-26T00:19:57;33.05;;;19.58;;
20619;SDS011;10469;42.720;23.252;2024-02-26T00:22:23;30.52;;;20.52;;
20619;SDS011;10469;42.720;23.252;2024-02-26T00:24:48;30.15;;;19.77;;
20619;SDS011;10469;42.720;23.252;2024-02-26T00:27:14;30.25;;;19.83;;
20619;SDS011;10469;42.720;23.252;2024-02-26T00:29:39;28.77;;;18.98;;
20619;SDS011;10469;42.720;23.252;2024-02-26T00:32:05;29.67;;;18.88;;
20619;SDS011;10469;42.720;23.252;2024-02-26T00:34:31;31.55;;;20.65;;
20619;SDS011;10469;42.720;23.252;2024-02-26T00:36:58;30.88;;;19.27;;
20619;SDS011;10469;42.720;23.252;2024-02-26T00:39:23;28.60;;;18.65;;
20619;SDS011;10469;42.720;23.252;2024-02-26T00:41:49;31.45;;;18.50;;
20619;SDS011;10469;42.720;23.252;2024-02-26T00:44:16;30.27;;;18.20;;
20619;SDS011;10469;42.720;23.252;2024-02-26T00:46:42;29.10;;;19.45;;
20619;SDS011;10469;42.720;23.252;2024-02-26T00:49:07;32.15;;;18.08;;
20619;SDS011;10469;42.720;23.252;2024-02-26T00:51:33;32.15;;;20.00;;
20619;SDS011;10469;42.720;23.252;2024-02-26T00:56:44;24.17;;;17.88;;
20619;SDS011;10469;42.720;23.252;2024-02-26T00:59:09;29.45;;;19.92;;
20619;SDS011;10469;42.720;23.252;2024-02-26T01:01:35;25.65;;;18.55;;
20619;SDS011;10469;42.720;23.252;2024-02-26T01:04:00;23.15;;;18.00;;
20619;SDS011;10469;42.720;23.252;2024-02-26T01:06:26;28.58;;;18.65;;
20619;SDS011;10469;42.720;23.252;2024-02-26T01:08:51;27.38;;;19.67;;
20619;SDS011;10469;42.720;23.252;2024-02-26T01:11:17;26.80;;;19.13;;
20619;SDS011;10469;42.720;23.252;2024-02-26T01:13:42;29.90;;;19.77;;
20619;SDS011;10469;42.720;23.252;2024-02-26T01:16:08;27.05;;;19.08;;
20619;SDS011;10469;42.720;23.252;2024-02-26T01:18:33;29.45;;;19.13;;
20619;SDS011;10469;42.720;23.252;2024-02-26T01:20:58;33.45;;;19.52;;
20619;SDS011;10469;42.720;23.252;2024-02-26T01:23:24;30.95;;;20.38;;
20619;SDS011;10469;42.720;23.252;2024-02-26T01:25:49;29.30;;;19.52;;
20619;SDS011;10469;42.720;23.252;2024-02-26T01:28:15;29.35;;;20.55;;
20619;SDS011;10469;42.720;23.252;2024-02-26T01:30:41;31.25;;;19.92;;
20619;SDS011;10469;42.720;23.252;2024-02-26T01:33:10;33.17;;;20.40;;
20619;SDS011;10469;42.720;23.252;2024-02-26T01:35:43;26.50;;;19.52;;
20619;SDS011;10469;42.720;23.252;2024-02-26T01:38:09;30.25;;;19.55;;
20619;SDS011;10469;42.720;23.252;2024-02-26T01:40:34;28.85;;;20.15;;
20619;SDS011;10469;42.720;23.252;2024-02-26T01:43:00;31.40;;;19.52;;
20619;SDS011;10469;42.720;23.252;2024-02-26T01:45:25;32.60;;;22.00;;
20619;SDS011;10469;42.720;23.252;2024-02-26T01:47:51;31.70;;;19.15;;
20619;SDS011;10469;42.720;23.252;2024-02-26T01:50:20;28.02;;;19.85;;
20619;SDS011;10469;42.720;23.252;2024-02-26T01:52:47;32.15;;;19.85;;
20619;SDS011;10469;42.720;23.252;2024-02-26T01:55:14;34.53;;;20.13;;
20619;SDS011;10469;42.720;23.252;2024-02-26T01:57:41;30.95;;;19.30;;
20619;SDS011;10469;42.720;23.252;2024-02-26T02:00:08;29.50;;;21.40;;
20619;SDS011;10469;42.720;23.252;2024-02-26T02:02:35;32.40;;;21.45;;
20619;SDS011;10469;42.720;23.252;2024-02-26T02:05:01;30.92;;;21.95;;
20619;SDS011;10469;42.720;23.252;2024-02-26T02:07:27;32.30;;;23.35;;
20619;SDS011;10469;42.720;23.252;2024-02-26T02:09:54;41.05;;;22.17;;
20619;SDS011;10469;42.720;23.252;2024-02-26T02:12:19;31.42;;;20.63;;
20619;SDS011;10469;42.720;23.252;2024-02-26T02:14:46;34.55;;;22.13;;
20619;SDS011;10469;42.720;23.252;2024-02-26T02:17:12;34.13;;;22.15;;
20619;SDS011;10469;42.720;23.252;2024-02-26T02:19:37;31.75;;;22.58;;
20619;SDS011;10469;42.720;23.252;2024-02-26T02:22:03;34.65;;;22.15;;
20619;SDS011;10469;42.720;23.252;2024-02-26T02:24:28;36.00;;;22.67;;
20619;SDS011;10469;42.720;23.252;2024-02-26T02:26:54;31.67;;;21.38;;
20619;SDS011;10469;42.720;23.252;2024-02-26T02:29:20;32.20;;;21.55;;
20619;SDS011;10469;42.720;23.252;2024-02-26T02:31:46;35.03;;;22.48;;
20619;SDS011;10469;42.720;23.252;2024-02-26T02:34:11;31.38;;;20.85;;
20619;SDS011;10469;42.720;23.252;2024-02-26T02:36:53;35.88;;;22.92;;
20619;SDS011;10469;42.720;23.252;2024-02-26T02:39:19;35.90;;;22.52;;
20619;SDS011;10469;42.720;23.252;2024-02-26T02:41:45;33.65;;;22.40;;
20619;SDS011;10469;42.720;23.252;2024-02-26T02:44:11;35.15;;;23.05;;
20619;SDS011;10469;42.720;23.252;2024-02-26T02:46:36;38.45;;;23.58;;
20619;SDS011;10469;42.720;23.252;2024-02-26T02:49:02;33.10;;;21.95;;
20619;SDS011;10469;42.720;23.252;2024-02-26T02:51:28;32.47;;;22.50;;
20619;SDS011;10469;42.720;23.252;2024-02-26T02:53:53;31.60;;;22.30;;
20619;SDS011;10469;42.720;23.252;2024-02-26T02:56:19;30.02;;;21.55;;
20619;SDS011;10469;42.720;23.252;2024-02-26T02:58:44;31.08;;;20.50;;
20619;SDS011;10469;42.720;23.252;2024-02-26T03:01:10;28.10;;;19.70;;
20619;SDS011;10469;42.720;23.252;2024-02-26T03:03:35;32.58;;;21.38;;
20619;SDS011;10469;42.720;23.252;2024-02-26T03:06:02;29.00;;;19.67;;
20619;SDS011;10469;42.720;23.252;2024-02-26T03:08:28;29.73;;;20.77;;
20619;SDS011;10469;42.720;23.252;2024-02-26T03:10:54;31.70;;;21.23;;
20619;SDS011;10469;42.720;23.252;2024-02-26T03:13:19;30.75;;;20.60;;
20619;SDS011;10469;42.720;23.252;2024-02-26T03:15:45;33.72;;;21.27;;
20619;SDS011;10469;42.720;23.252;2024-02-26T03:18:10;31.95;;;22.05;;
20619;SDS011;10469;42.720;23.252;2024-02-26T03:20:36;33.63;;;22.50;;
20619;SDS011;10469;42.720;23.252;2024-02-26T03:23:02;39.00;;;22.83;;
20619;SDS011;10469;42.720;23.252;2024-02-26T03:25:28;31.58;;;21.38;;
20619;SDS011;10469;42.720;23.252;2024-02-26T03:27:53;34.20;;;22.23;;
20619;SDS011;10469;42.720;23.252;2024-02-26T03:30:19;31.70;;;20.60;;
20619;SDS011;10469;42.720;23.252;2024-02-26T03:32:44;31.23;;;22.05;;
20619;SDS011;10469;42.720;23.252;2024-02-26T03:35:09;32.55;;;21.90;;
20619;SDS011;10469;42.720;23.252;2024-02-26T03:37:35;34.45;;;21.25;;
20619;SDS011;10469;42.720;23.252;2024-02-26T03:40:00;30.70;;;21.48;;
20619;SDS011;10469;42.720;23.252;2024-02-26T03:42:26;35.78;;;22.15;;
20619;SDS011;10469;42.720;23.252;2024-02-26T03:44:52;33.47;;;21.60;;
20619;SDS011;10469;42.720;23.252;2024-02-26T03:47:17;32.95;;;22.40;;
20619;SDS011;10469;42.720;23.252;2024-02-26T03:49:43;32.83;;;22.65;;
20619;SDS011;10469;42.720;23.252;2024-02-26T03:52:08;34.85;;;22.20;;
20619;SDS011;10469;42.720;23.252;2024-02-26T03:54:34;35.03;;;20.98;;
20619;SDS011;10469;42.720;23.252;2024-02-26T03:56:59;38.35;;;21.83;;
20619;SDS011;10469;42.720;23.252;2024-02-26T03:59:25;31.63;;;22.50;;
20619;SDS011;10469;42.720;23.252;2024-02-26T04:01:51;29.92;;;21.85;;
20619;SDS011;10469;42.720;23.252;2024-02-26T04:04:17;31.05;;;21.38;;
20619;SDS011;10469;42.720;23.252;2024-02-26T04:06:45;31.70;;;22.77;;
20619;SDS011;10469;42.720;23.252;2024-02-26T04:09:13;33.20;;;22.95;;
20619;SDS011;10469;42.720;23.252;2024-02-26T04:11:39;37.63;;;23.00;;
20619;SDS011;10469;42.720;23.252;2024-02-26T04:14:04;38.33;;;24.33;;
20619;SDS011;10469;42.720;23.252;2024-02-26T04:16:33;39.28;;;23.60;;
20619;SDS011;10469;42.720;23.252;2024-02-26T04:18:59;33.92;;;23.08;;
20619;SDS011;10469;42.720;23.252;2024-02-26T04:21:24;38.50;;;22.38;;
20619;SDS011;10469;42.720;23.252;2024-02-26T04:23:50;33.70;;;22.38;;
20619;SDS011;10469;42.720;23.252;2024-02-26T04:26:16;39.05;;;22.20;;
20619;SDS011;10469;42.720;23.252;2024-02-26T04:28:41;36.53;;;24.67;;
20619;SDS011;10469;42.720;23.252;2024-02-26T04:31:07;37.67;;;24.48;;
20619;SDS011;10469;42.720;23.252;2024-02-26T04:33:33;42.75;;;24.40;;
20619;SDS011;10469;42.720;23.252;2024-02-26T04:36:00;42.05;;;24.25;;
20619;SDS011;10469;42.720;23.252;2024-02-26T04:38:25;38.60;;;23.65;;
20619;SDS011;10469;42.720;23.252;2024-02-26T04:40:51;42.22;;;24.92;;
20619;SDS011;10469;42.720;23.252;2024-02-26T04:43:16;37.63;;;24.95;;
20619;SDS011;10469;42.720;23.252;2024-02-26T04:45:43;38.33;;;24.83;;
20619;SDS011;10469;42.720;23.252;2024-02-26T04:48:08;41.22;;;26.50;;
20619;SDS011;10469;42.720;23.252;2024-02-26T04:50:34;40.58;;;25.60;;
20619;SDS011;10469;42.720;23.252;2024-02-26T04:52:59;40.67;;;24.95;;
20619;SDS011;10469;42.720;23.252;2024-02-26T04:55:25;38.63;;;23.60;;
20619;SDS011;10469;42.720;23.252;2024-02-26T04:57:50;40.88;;;22.13;;
20619;SDS011;10469;42.720;23.252;2024-02-26T05:00:16;36.60;;;23.40;;
20619;SDS011;10469;42.720;23.252;2024-02-26T05:02:41;37.08;;;24.17;;
20619;SDS011;10469;42.720;23.252;2024-02-26T05:05:07;39.00;;;26.65;;
20619;SDS011;10469;42.720;23.252;2024-02-26T05:07:34;43.60;;;26.40;;
20619;SDS011;10469;42.720;23.252;2024-02-26T05:10:04;41.17;;;25.30;;
20619;SDS011;10469;42.720;23.252;2024-02-26T05:12:30;42.08;;;25.02;;
20619;SDS011;10469;42.720;23.252;2024-02-26T05:14:56;38.67;;;22.13;;
20619;SDS011;10469;42.720;23.252;2024-02-26T05:17:21;35.45;;;20.83;;
20619;SDS011;10469;42.720;23.252;2024-02-26T05:19:46;34.50;;;20.77;;
20619;SDS011;10469;42.720;23.252;2024-02-26T05:22:12;32.35;;;21.00;;
20619;SDS011;10469;42.720;23.252;2024-02-26T05:24:37;30.98;;;19.98;;
20619;SDS011;10469;42.720;23.252;2024-02-26T05:27:03;32.97;;;20.08;;
20619;SDS011;10469;42.720;23.252;2024-02-26T05:29:29;28.52;;;19.67;;
20619;SDS011;10469;42.720;23.252;2024-02-26T05:31:54;34.28;;;19.48;;
20619;SDS011;10469;42.720;23.252;2024-02-26T05:34:20;32.10;;;20.08;;
20619;SDS011;10469;42.720;23.252;2024-02-26T05:36:47;33.58;;;20.80;;
20619;SDS011;10469;42.720;23.252;2024-02-26T05:39:12;32.45;;;19.75;;
20619;SDS011;10469;42.720;23.252;2024-02-26T05:41:38;35.00;;;21.23;;
20619;SDS011;10469;42.720;23.252;2024-02-26T05:44:03;29.40;;;20.10;;
20619;SDS011;10469;42.720;23.252;2024-02-26T05:46:29;35.97;;;21.77;;
20619;SDS011;10469;42.720;23.252;2024-02-26T05:48:54;37.78;;;22.00;;
20619;SDS011;10469;42.720;23.252;2024-02-26T05:51:20;33.30;;;20.73;;
20619;SDS011;10469;42.720;23.252;2024-02-26T05:53:46;39.63;;;21.90;;
20619;SDS011;10469;42.720;23.252;2024-02-26T05:56:19;34.78;;;21.85;;
20619;SDS011;10469;42.720;23.252;2024-02-26T05:58:45;40.78;;;22.33;;
20619;SDS011;10469;42.720;23.252;2024-02-26T06:01:11;36.92;;;22.00;;
20619;SDS011;10469;42.720;23.252;2024-02-26T06:03:36;35.90;;;22.52;;
20619;SDS011;10469;42.720;23.252;2024-02-26T06:06:02;34.90;;;22.77;;
20619;SDS011;10469;42.720;23.252;2024-02-26T06:08:27;32.35;;;23.08;;
20619;SDS011;10469;42.720;23.252;2024-02-26T06:10:53;37.47;;;23.50;;
20619;SDS011;10469;42.720;23.252;2024-02-26T06:13:18;32.35;;;22.08;;
20619;SDS011;10469;42.720;23.252;2024-02-26T06:15:44;35.97;;;23.25;;
20619;SDS011;10469;42.720;23.252;2024-02-26T06:18:09;40.97;;;23.45;;
20619;SDS011;10469;42.720;23.252;2024-02-26T06:20:34;40.28;;;24.75;;
20619;SDS011;10469;42.720;23.252;2024-02-26T06:23:00;35.05;;;23.50;;
20619;SDS011;10469;42.720;23.252;2024-02-26T06:25:25;39.33;;;23.65;;
20619;SDS011;10469;42.720;23.252;2024-02-26T06:27:51;42.45;;;24.45;;
20619;SDS011;10469;42.720;23.252;2024-02-26T06:30:16;45.47;;;25.75;;
20619;SDS011;10469;42.720;23.252;2024-02-26T06:32:42;41.88;;;25.48;;
20619;SDS011;10469;42.720;23.252;2024-02-26T06:35:07;45.35;;;24.58;;
20619;SDS011;10469;42.720;23.252;2024-02-26T06:37:35;39.53;;;25.10;;
20619;SDS011;10469;42.720;23.252;2024-02-26T06:40:01;36.55;;;24.00;;
20619;SDS011;10469;42.720;23.252;2024-02-26T06:42:31;45.97;;;25.75;;
20619;SDS011;10469;42.720;23.252;2024-02-26T06:44:57;47.67;;;28.63;;
20619;SDS011;10469;42.720;23.252;2024-02-26T06:47:23;50.13;;;28.63;;
20619;SDS011;10469;42.720;23.252;2024-02-26T06:49:48;55.08;;;31.85;;
20619;SDS011;10469;42.720;23.252;2024-02-26T06:52:14;53.47;;;29.88;;
20619;SDS011;10469;42.720;23.252;2024-02-26T06:54:39;60.38;;;30.88;;
20619;SDS011;10469;42.720;23.252;2024-02-26T06:59:36;45.47;;;31.05;;
20619;SDS011;10469;42.720;23.252;2024-02-26T07:02:02;54.33;;;35.53;;
20619;SDS011;10469;42.720;23.252;2024-02-26T07:04:27;56.50;;;37.55;;
20619;SDS011;10469;42.720;23.252;2024-02-26T07:06:53;60.17;;;41.25;;
20619;SDS011;10469;42.720;23.252;2024-02-26T07:09:18;64.75;;;36.03;;
20619;SDS011;10469;42.720;23.252;2024-02-26T07:11:44;60.50;;;33.50;;
20619;SDS011;10469;42.720;23.252;2024-02-26T07:14:09;46.50;;;30.52;;
20619;SDS011;10469;42.720;23.252;2024-02-26T07:16:35;53.97;;;33.13;;
20619;SDS011;10469;42.720;23.252;2024-02-26T07:19:01;50.40;;;29.90;;
20619;SDS011;10469;42.720;23.252;2024-02-26T07:21:27;42.67;;;28.60;;
20619;SDS011;10469;42.720;23.252;2024-02-26T07:23:53;55.22;;;29.02;;
20619;SDS011;10469;42.720;23.252;2024-02-26T07:26:19;54.20;;;31.45;;
20619;SDS011;10469;42.720;23.252;2024-02-26T07:28:44;63.13;;;33.05;;
20619;SDS011;10469;42.720;23.252;2024-02-26T07:31:10;41.85;;;25.65;;
20619;SDS011;10469;42.720;23.252;2024-02-26T07:33:35;39.17;;;24.00;;
20619;SDS011;10469;42.720;23.252;2024-02-26T07:36:01;43.75;;;23.65;;
20619;SDS011;10469;42.720;23.252;2024-02-26T07:38:27;40.45;;;22.10;;
20619;SDS011;10469;42.720;23.252;2024-02-26T07:40:52;41.17;;;23.15;;
20619;SDS011;10469;42.720;23.252;2024-02-26T07:43:18;39.05;;;23.88;;
20619;SDS011;10469;42.720;23.252;2024-02-26T07:45:43;37.08;;;21.83;;
20619;SDS011;10469;42.720;23.252;2024-02-26T07:48:09;40.75;;;22.98;;
20619;SDS011;10469;42.720;23.252;2024-02-26T07:50:34;34.67;;;23.70;;
20619;SDS011;10469;42.720;23.252;2024-02-26T07:53:00;35.38;;;22.80;;
20619;SDS011;10469;42.720;23.252;2024-02-26T07:55:25;36.25;;;21.65;;
20619;SDS011;10469;42.720;23.252;2024-02-26T07:57:51;41.78;;;22.40;;
20619;SDS011;10469;42.720;23.252;2024-02-26T08:00:16;34.83;;;20.90;;
20619;SDS011;10469;42.720;23.252;2024-02-26T08:02:42;38.47;;;22.40;;
20619;SDS011;10469;42.720;23.252;2024-02-26T08:05:09;37.65;;;22.13;;
20619;SDS011;10469;42.720;23.252;2024-02-26T08:07:34;39.47;;;21.00;;
20619;SDS011;10469;42.720;23.252;2024-02-26T08:10:00;37.92;;;22.27;;
20619;SDS011;10469;42.720;23.252;2024-02-26T08:12:25;39.83;;;23.10;;
20619;SDS011;10469;42.720;23.252;2024-02-26T08:14:51;34.35;;;23.52;;
20619;SDS011;10469;42.720;23.252;2024-02-26T08:17:16;36.58;;;23.65;;
20619;SDS011;10469;42.720;23.252;2024-02-26T08:19:42;37.45;;;22.92;;
20619;SDS011;10469;42.720;23.252;2024-02-26T08:22:07;35.90;;;22.52;;
20619;SDS011;10469;42.720;23.252;2024-02-26T08:24:34;43.40;;;23.80;;
20619;SDS011;10469;42.720;23.252;2024-02-26T08:27:00;35.83;;;24.42;;
20619;SDS011;10469;42.720;23.252;2024-02-26T08:29:25;38.00;;;25.25;;
20619;SDS011;10469;42.720;23.252;2024-02-26T08:31:51;43.15;;;25.13;;
20619;SDS011;10469;42.720;23.252;2024-02-26T08:34:16;36.20;;;25.63;;
20619;SDS011;10469;42.720;23.252;2024-02-26T08:36:42;36.28;;;24.02;;
20619;SDS011;10469;42.720;23.252;2024-02-26T08:39:08;39.95;;;24.13;;
20619;SDS011;10469;42.720;23.252;2024-02-26T08:41:34;39.88;;;23.85;;
20619;SDS011;10469;42.720;23.252;2024-02-26T08:43:59;47.33;;;23.88;;
20619;SDS011;10469;42.720;23.252;2024-02-26T08:46:25;38.72;;;23.35;;
20619;SDS011;10469;42.720;23.252;2024-02-26T08:48:50;37.85;;;24.75;;
20619;SDS011;10469;42.720;23.252;2024-02-26T08:51:16;46.20;;;25.90;;
20619;SDS011;10469;42.720;23.252;2024-02-26T08:53:42;35.70;;;23.38;;
20619;SDS011;10469;42.720;23.252;2024-02-26T08:56:07;38.20;;;22.48;;
20619;SDS011;10469;42.720;23.252;2024-02-26T08:58:32;50.67;;;26.05;;
20619;SDS011;10469;42.720;23.252;2024-02-26T09:00:58;39.05;;;22.95;;
20619;SDS011;10469;42.720;23.252;2024-02-26T09:03:23;44.67;;;23.48;;
20619;SDS011;10469;42.720;23.252;2024-02-26T09:05:49;39.55;;;24.10;;
20619;SDS011;10469;42.720;23.252;2024-02-26T09:08:14;42.70;;;25.15;;
20619;SDS011;10469;42.720;23.252;2024-02-26T09:10:40;43.28;;;24.50;;
20619;SDS011;10469;42.720;23.252;2024-02-26T09:13:06;41.35;;;24.13;;
20619;SDS011;10469;42.720;23.252;2024-02-26T09:15:32;36.85;;;22.02;;
20619;SDS011;10469;42.720;23.252;2024-02-26T09:17:57;45.80;;;23.55;;
20619;SDS011;10469;42.720;23.252;2024-02-26T09:20:23;35.72;;;23.10;;
20619;SDS011;10469;42.720;23.252;2024-02-26T09:22:49;39.88;;;22.65;;
20619;SDS011;10469;42.720;23.252;2024-02-26T09:25:15;38.20;;;21.73;;
20619;SDS011;10469;42.720;23.252;2024-02-26T09:27:44;41.55;;;22.17;;
20619;SDS011;10469;42.720;23.252;2024-02-26T09:30:10;36.47;;;22.75;;
20619;SDS011;10469;42.720;23.252;2024-02-26T09:32:37;43.40;;;22.83;;
20619;SDS011;10469;42.720;23.252;2024-02-26T09:35:02;41.45;;;23.08;;
20619;SDS011;10469;42.720;23.252;2024-02-26T09:37:28;36.80;;;21.25;;
20619;SDS011;10469;42.720;23.252;2024-02-26T09:39:53;32.45;;;21.13;;
20619;SDS011;10469;42.720;23.252;2024-02-26T09:42:19;40.28;;;21.77;;
20619;SDS011;10469;42.720;23.252;2024-02-26T09:44:45;44.00;;;21.50;;
20619;SDS011;10469;42.720;23.252;2024-02-26T09:47:11;40.65;;;21.88;;
20619;SDS011;10469;42.720;23.252;2024-02-26T09:49:42;35.97;;;21.40;;
20619;SDS011;10469;42.720;23.252;2024-02-26T09:52:08;35.65;;;20.75;;
20619;SDS011;10469;42.720;23.252;2024-02-26T09:54:35;27.02;;;18.23;;
20619;SDS011;10469;42.720;23.252;2024-02-26T09:57:02;16.35;;;11.75;;
20619;SDS011;10469;42.720;23.252;2024-02-26T09:59:29;24.00;;;11.68;;
20619;SDS011;10469;42.720;23.252;2024-02-26T10:02:06;19.60;;;10.75;;
20619;SDS011;10469;42.720;23.252;2024-02-26T10:04:39;11.70;;;8.20;;
20619;SDS011;10469;42.720;23.252;2024-02-26T10:07:12;11.18;;;7.75;;
20619;SDS011;10469;42.720;23.252;2024-02-26T10:09:38;11.57;;;6.90;;
20619;SDS011;10469;42.720;23.252;2024-02-26T10:12:04;9.23;;;6.45;;
20619;SDS011;10469;42.720;23.252;2024-02-26T10:14:32;15.23;;;7.28;;
20619;SDS011;10469;42.720;23.252;2024-02-26T10:16:58;10.05;;;6.55;;
20619;SDS011;10469;42.720;23.252;2024-02-26T10:19:27;9.40;;;7.22;;
20619;SDS011;10469;42.720;23.252;2024-02-26T10:21:56;11.77;;;6.75;;
20619;SDS011;10469;42.720;23.252;2024-02-26T10:24:23;9.10;;;7.10;;
20619;SDS011;10469;42.720;23.252;2024-02-26T10:26:50;9.05;;;6.60;;
20619;SDS011;10469;42.720;23.252;2024-02-26T10:29:17;8.68;;;6.13;;
20619;SDS011;10469;42.720;23.252;2024-02-26T10:31:43;10.07;;;6.55;;
20619;SDS011;10469;42.720;23.252;2024-02-26T10:34:10;11.95;;;6.20;;
20619;SDS011;10469;42.720;23.252;2024-02-26T10:36:35;7.20;;;5.90;;
20619;SDS011;10469;42.720;23.252;2024-02-26T10:39:04;8.50;;;5.93;;
20619;SDS011;10469;42.720;23.252;2024-02-26T10:41:30;8.18;;;5.80;;
20619;SDS011;10469;42.720;23.252;2024-02-26T10:43:57;10.85;;;5.97;;
20619;SDS011;10469;42.720;23.252;2024-02-26T10:46:23;11.13;;;7.43;;
20619;SDS011;10469;42.720;23.252;2024-02-26T10:48:50;10.85;;;6.07;;
20619;SDS011;10469;42.720;23.252;2024-02-26T10:51:17;7.07;;;5.68;;
20619;SDS011;10469;42.720;23.252;2024-02-26T10:53:54;12.00;;;5.88;;
20619;SDS011;10469;42.720;23.252;2024-02-26T10:56:27;6.95;;;5.22;;
20619;SDS011;10469;42.720;23.252;2024-02-26T10:58:56;6.93;;;5.10;;
20619;SDS011;10469;42.720;23.252;2024-02-26T11:01:22;10.93;;;5.85;;
20619;SDS011;10469;42.720;23.252;2024-02-26T11:03:51;6.18;;;5.53;;
20619;SDS011;10469;42.720;23.252;2024-02-26T11:06:18;7.70;;;5.90;;
20619;SDS011;10469;42.720;23.252;2024-02-26T11:08:49;16.90;;;6.35;;
20619;SDS011;10469;42.720;23.252;2024-02-26T11:11:18;11.38;;;6.20;;
20619;SDS011;10469;42.720;23.252;2024-02-26T11:13:45;8.70;;;5.80;;
20619;SDS011;10469;42.720;23.252;2024-02-26T11:16:15;8.13;;;5.88;;
20619;SDS011;10469;42.720;23.252;2024-02-26T11:18:43;7.57;;;5.18;;
20619;SDS011;10469;42.720;23.252;2024-02-26T11:21:13;10.52;;;5.30;;
20619;SDS011;10469;42.720;23.252;2024-02-26T11:23:41;10.30;;;5.50;;
20619;SDS011;10469;42.720;23.252;2024-02-26T11:26:07;8.90;;;5.55;;
20619;SDS011;10469;42.720;23.252;2024-02-26T11:28:35;10.77;;;5.68;;
20619;SDS011;10469;42.720;23.252;2024-02-26T11:31:03;8.85;;;5.95;;
20619;SDS011;10469;42.720;23.252;2024-02-26T11:33:30;7.88;;;5.30;;
20619;SDS011;10469;42.720;23.252;2024-02-26T11:35:57;6.57;;;5.30;;
20619;SDS011;10469;42.720;23.252;2024-02-26T11:38:24;11.00;;;5.82;;
20619;SDS011;10469;42.720;23.252;2024-02-26T11:40:52;6.95;;;5.32;;
20619;SDS011;10469;42.720;23.252;2024-02-26T11:43:18;5.78;;;5.03;;
20619;SDS011;10469;42.720;23.252;2024-02-26T11:45:49;10.05;;;5.70;;
20619;SDS011;10469;42.720;23.252;2024-02-26T11:48:19;10.00;;;6.10;;
20619;SDS011;10469;42.720;23.252;2024-02-26T11:50:46;11.23;;;6.45;;
20619;SDS011;10469;42.720;23.252;2024-02-26T11:58:39;6.40;;;5.00;;
20619;SDS011;10469;42.720;23.252;2024-02-26T12:01:05;6.20;;;4.85;;
20619;SDS011;10469;42.720;23.252;2024-02-26T12:03:31;8.27;;;5.10;;
20619;SDS011;10469;42.720;23.252;2024-02-26T12:05:56;7.32;;;5.55;;
20619;SDS011;10469;42.720;23.252;2024-02-26T12:08:22;9.68;;;5.65;;
20619;SDS011;10469;42.720;23.252;2024-02-26T12:10:50;10.05;;;5.35;;
20619;SDS011;10469;42.720;23.252;2024-02-26T12:13:16;7.97;;;5.00;;
20619;SDS011;10469;42.720;23.252;2024-02-26T12:15:47;10.63;;;5.00;;
20619;SDS011;10469;42.720;23.252;2024-02-26T12:18:23;5.65;;;4.90;;
20619;SDS011;10469;42.720;23.252;2024-02-26T12:20:59;5.88;;;4.60;;
20619;SDS011;10469;42.720;23.252;2024-02-26T12:23:28;7.03;;;5.00;;
20619;SDS011;10469;42.720;23.252;2024-02-26T12:26:01;8.50;;;4.78;;
20619;SDS011;10469;42.720;23.252;2024-02-26T12:28:30;7.50;;;4.43;;
20619;SDS011;10469;42.720;23.252;2024-02-26T12:30:55;8.27;;;4.53;;
20619;SDS011;10469;42.720;23.252;2024-02-26T12:33:24;9.25;;;4.82;;
20619;SDS011;10469;42.720;23.252;2024-02-26T12:35:51;8.38;;;4.45;;
20619;SDS011;10469;42.720;23.252;2024-02-26T12:38:17;7.88;;;4.72;;
20619;SDS011;10469;42.720;23.252;2024-02-26T12:40:43;7.65;;;4.47;;
20619;SDS011;10469;42.720;23.252;2024-02-26T12:43:09;6.40;;;4.47;;
20619;SDS011;10469;42.720;23.252;2024-02-26T12:45:40;7.50;;;4.72;;
20619;SDS011;10469;42.720;23.252;2024-02-26T12:48:06;7.57;;;4.32;;
20619;SDS011;10469;42.720;23.252;2024-02-26T12:50:32;7.32;;;4.78;;
20619;SDS011;10469;42.720;23.252;2024-02-26T12:52:58;8.40;;;4.63;;
20619;SDS011;10469;42.720;23.252;2024-02-26T12:55:24;6.55;;;4.40;;
20619;SDS011;10469;42.720;23.252;2024-02-26T12:57:51;7.50;;;4.68;;
20619;SDS011;10469;42.720;23.252;2024-02-26T13:00:19;11.50;;;4.45;;
20619;SDS011;10469;42.720;23.252;2024-02-26T13:02:52;7.57;;;4.70;;
20619;SDS011;10469;42.720;23.252;2024-02-26T13:05:20;6.68;;;3.90;;
20619;SDS011;10469;42.720;23.252;2024-02-26T13:07:46;6.07;;;4.53;;
20619;SDS011;10469;42.720;23.252;2024-02-26T13:10:13;7.32;;;4.57;;
20619;SDS011;10469;42.720;23.252;2024-02-26T13:12:45;11.23;;;4.57;;
20619;SDS011;10469;42.720;23.252;2024-02-26T13:15:16;6.90;;;4.60;;
20619;SDS011;10469;42.720;23.252;2024-02-26T13:17:43;7.53;;;4.70;;
20619;SDS011;10469;42.720;23.252;2024-02-26T13:20:09;6.05;;;3.78;;
20619;SDS011;10469;42.720;23.252;2024-02-26T13:22:35;6.20;;;4.55;;
20619;SDS011;10469;42.720;23.252;2024-02-26T13:25:01;6.20;;;4.15;;
20619;SDS011;10469;42.720;23.252;2024-02-26T13:27:32;9.70;;;4.30;;
20619;SDS011;10469;42.720;23.252;2024-02-26T13:32:34;7.60;;;4.57;;
20619;SDS011;10469;42.720;23.252;2024-02-26T13:35:07;12.13;;;5.30;;
20619;SDS011;10469;42.720;23.252;2024-02-26T13:37:37;5.70;;;4.22;;
20619;SDS011;10469;42.720;23.252;2024-02-26T13:40:06;6.07;;;4.50;;
20619;SDS011;10469;42.720;23.252;2024-02-26T13:42:34;9.00;;;3.92;;
20619;SDS011;10469;42.720;23.252;2024-02-26T13:45:00;5.70;;;4.30;;
20619;SDS011;10469;42.720;23.252;2024-02-26T13:47:26;7.38;;;4.55;;
20619;SDS011;10469;42.720;23.252;2024-02-26T13:49:51;8.55;;;4.32;;
20619;SDS011;10469;42.720;23.252;2024-02-26T13:52:17;5.30;;;4.15;;
20619;SDS011;10469;42.720;23.252;2024-02-26T13:54:42;6.65;;;4.55;;
20619;SDS011;10469;42.720;23.252;2024-02-26T13:57:08;7.32;;;4.10;;
20619;SDS011;10469;42.720;23.252;2024-02-26T13:59:34;6.63;;;4.35;;
20619;SDS011;10469;42.720;23.252;2024-02-26T14:02:00;8.77;;;4.55;;
20619;SDS011;10469;42.720;23.252;2024-02-26T14:04:25;6.93;;;4.53;;
20619;SDS011;10469;42.720;23.252;2024-02-26T14:06:51;7.53;;;4.28;;
20619;SDS011;10469;42.720;23.252;2024-02-26T14:09:16;7.40;;;4.38;;
20619;SDS011;10469;42.720;23.252;2024-02-26T14:11:47;9.35;;;4.35;;
20619;SDS011;10469;42.720;23.252;2024-02-26T14:14:13;9.38;;;3.78;;
20619;SDS011;10469;42.720;23.252;2024-02-26T14:16:39;7.78;;;4.20;;
20619;SDS011;10469;42.720;23.252;2024-02-26T14:19:04;10.68;;;4.35;;
20619;SDS011;10469;42.720;23.252;2024-02-26T14:21:30;8.43;;;4.18;;
20619;SDS011;10469;42.720;23.252;2024-02-26T14:23:55;11.60;;;4.47;;